sensor_id;sensor_type;location;lat;lon;timestamp;P1;durP1;ratioP1;P2;durP2;ratioP2
74523;SDS011;63074;44.696;10.358;2023-03-14T06:13:28;33.60;;;18.92;;
74523;SDS011;63074;44.696;10.358;2023-03-14T06:15:54;28.50;;;18.67;;
74523;SDS011;63074;44.696;10.358;2023-03-14T06:18:20;32.28;;;18.58;;
74523;SDS011;63074;44.696;10.358;2023-03-14T06:20:47;34.53;;;20.35;;
74523;SDS011;63074;44.696;10.358;2023-03-14T06:23:13;36.08;;;20.77;;
74523;SDS011;63074;44.696;10.358;2023-03-14T06:25:39;37.83;;;21.00;;
74523;SDS011;63074;44.696;10.358;2023-03-14T06:28:05;37.00;;;21.90;;
74523;SDS011;63074;44.696;10.358;2023-03-14T06:30:31;36.40;;;20.90;;
74523;SDS011;63074;44.696;10.358;2023-03-14T06:32:57;33.13;;;21.73;;
74523;SDS011;63074;44.696;10.358;2023-03-14T06:35:23;34.97;;;20.60;;
74523;SDS011;63074;44.696;10.358;2023-03-14T06:37:50;34.88;;;22.10;;
74523;SDS011;63074;44.696;10.358;2023-03-14T06:40:16;34.13;;;21.00;;
74523;SDS011;63074;44.696;10.358;2023-03-14T06:42:43;33.35;;;20.15;;
74523;SDS011;63074;44.696;10.358;2023-03-14T06:45:11;30.27;;;19.90;;
74523;SDS011;63074;44.696;10.358;2023-03-14T06:47:37;33.97;;;19.75;;
74523;SDS011;63074;44.696;10.358;2023-03-14T06:50:04;32.20;;;19.65;;
74523;SDS011;63074;44.696;10.358;2023-03-14T06:52:31;30.52;;;19.13;;
74523;SDS011;63074;44.696;10.358;2023-03-14T06:54:58;31.23;;;17.38;;
74523;SDS011;63074;44.696;10.358;2023-03-14T06:57:24;31.30;;;20.13;;
74523;SDS011;63074;44.696;10.358;2023-03-14T06:59:50;30.50;;;19.85;;
74523;SDS011;63074;44.696;10.358;2023-03-14T07:02:16;30.15;;;19.70;;
74523;SDS011;63074;44.696;10.358;2023-03-14T07:04:42;34.78;;;21.55;;
74523;SDS011;63074;44.696;10.358;2023-03-14T07:07:09;30.60;;;19.52;;
74523;SDS011;63074;44.696;10.358;2023-03-14T07:09:35;33.42;;;18.70;;
74523;SDS011;63074;44.696;10.358;2023-03-14T07:12:01;29.20;;;18.45;;
74523;SDS011;63074;44.696;10.358;2023-03-14T07:14:29;31.13;;;20.35;;
74523;SDS011;63074;44.696;10.358;2023-03-14T07:16:55;34.45;;;19.55;;
74523;SDS011;63074;44.696;10.358;2023-03-14T07:19:21;30.88;;;19.02;;
74523;SDS011;63074;44.696;10.358;2023-03-14T07:21:47;32.63;;;20.42;;
74523;SDS011;63074;44.696;10.358;2023-03-14T07:24:14;27.85;;;17.52;;
74523;SDS011;63074;44.696;10.358;2023-03-14T07:26:40;27.77;;;18.27;;
74523;SDS011;63074;44.696;10.358;2023-03-14T07:29:06;26.40;;;17.35;;
74523;SDS011;63074;44.696;10.358;2023-03-14T07:31:32;23.50;;;15.65;;
74523;SDS011;63074;44.696;10.358;2023-03-14T07:33:59;28.13;;;16.15;;
74523;SDS011;63074;44.696;10.358;2023-03-14T07:36:25;28.17;;;17.23;;
74523;SDS011;63074;44.696;10.358;2023-03-14T07:38:51;25.35;;;16.40;;
74523;SDS011;63074;44.696;10.358;2023-03-14T07:41:17;25.50;;;16.33;;
74523;SDS011;63074;44.696;10.358;2023-03-14T07:43:45;26.40;;;17.27;;
74523;SDS011;63074;44.696;10.358;2023-03-14T07:46:11;26.45;;;16.08;;
74523;SDS011;63074;44.696;10.358;2023-03-14T07:48:38;25.27;;;16.38;;
74523;SDS011;63074;44.696;10.358;2023-03-14T07:51:04;24.77;;;16.27;;
74523;SDS011;63074;44.696;10.358;2023-03-14T07:53:30;27.55;;;16.05;;
74523;SDS011;63074;44.696;10.358;2023-03-14T07:55:56;26.70;;;15.35;;
74523;SDS011;63074;44.696;10.358;2023-03-14T07:58:23;27.13;;;16.30;;
74523;SDS011;63074;44.696;10.358;2023-03-14T08:00:49;26.35;;;15.95;;
74523;SDS011;63074;44.696;10.358;2023-03-14T08:03:16;26.23;;;16.45;;
74523;SDS011;63074;44.696;10.358;2023-03-14T08:05:43;27.77;;;17.90;;
74523;SDS011;63074;44.696;10.358;2023-03-14T08:08:14;29.73;;;16.92;;
74523;SDS011;63074;44.696;10.358;2023-03-14T08:10:40;29.27;;;16.42;;
74523;SDS011;63074;44.696;10.358;2023-03-14T08:13:06;24.27;;;15.27;;
74523;SDS011;63074;44.696;10.358;2023-03-14T08:15:34;24.98;;;14.90;;
74523;SDS011;63074;44.696;10.358;2023-03-14T08:18:00;27.58;;;14.85;;
74523;SDS011;63074;44.696;10.358;2023-03-14T08:20:27;23.45;;;14.48;;
74523;SDS011;63074;44.696;10.358;2023-03-14T08:22:57;23.00;;;14.98;;
74523;SDS011;63074;44.696;10.358;2023-03-14T08:25:25;24.23;;;15.13;;
74523;SDS011;63074;44.696;10.358;2023-03-14T08:27:52;21.23;;;13.52;;
74523;SDS011;63074;44.696;10.358;2023-03-14T08:30:19;22.08;;;14.20;;
74523;SDS011;63074;44.696;10.358;2023-03-14T08:32:46;18.70;;;12.88;;
74523;SDS011;63074;44.696;10.358;2023-03-14T08:35:13;19.63;;;13.27;;
74523;SDS011;63074;44.696;10.358;2023-03-14T08:37:39;19.17;;;12.25;;
74523;SDS011;63074;44.696;10.358;2023-03-14T08:40:06;17.10;;;11.32;;
74523;SDS011;63074;44.696;10.358;2023-03-14T08:42:35;20.15;;;12.05;;
74523;SDS011;63074;44.696;10.358;2023-03-14T08:45:02;19.08;;;11.90;;
74523;SDS011;63074;44.696;10.358;2023-03-14T08:47:29;19.80;;;12.45;;
74523;SDS011;63074;44.696;10.358;2023-03-14T08:49:55;19.88;;;12.35;;
74523;SDS011;63074;44.696;10.358;2023-03-14T08:52:22;16.67;;;10.75;;
74523;SDS011;63074;44.696;10.358;2023-03-14T08:54:48;18.58;;;11.10;;
74523;SDS011;63074;44.696;10.358;2023-03-14T08:57:14;17.15;;;11.10;;
74523;SDS011;63074;44.696;10.358;2023-03-14T08:59:40;16.85;;;11.00;;
74523;SDS011;63074;44.696;10.358;2023-03-14T09:02:08;17.27;;;11.30;;
74523;SDS011;63074;44.696;10.358;2023-03-14T09:04:36;15.88;;;10.18;;
74523;SDS011;63074;44.696;10.358;2023-03-14T09:07:02;19.08;;;11.23;;
74523;SDS011;63074;44.696;10.358;2023-03-14T09:09:28;17.38;;;9.88;;
74523;SDS011;63074;44.696;10.358;2023-03-14T09:11:55;19.17;;;11.55;;
74523;SDS011;63074;44.696;10.358;2023-03-14T09:14:21;18.15;;;11.48;;
74523;SDS011;63074;44.696;10.358;2023-03-14T09:16:48;17.52;;;9.65;;
74523;SDS011;63074;44.696;10.358;2023-03-14T09:19:15;18.83;;;11.27;;
74523;SDS011;63074;44.696;10.358;2023-03-14T09:21:42;16.77;;;11.95;;
74523;SDS011;63074;44.696;10.358;2023-03-14T09:24:08;16.20;;;10.85;;
74523;SDS011;63074;44.696;10.358;2023-03-14T09:26:34;15.40;;;10.77;;
74523;SDS011;63074;44.696;10.358;2023-03-14T09:29:00;14.50;;;9.68;;
74523;SDS011;63074;44.696;10.358;2023-03-14T09:31:26;15.27;;;10.45;;
74523;SDS011;63074;44.696;10.358;2023-03-14T09:33:53;15.60;;;10.10;;
74523;SDS011;63074;44.696;10.358;2023-03-14T09:36:20;16.38;;;10.27;;
74523;SDS011;63074;44.696;10.358;2023-03-14T09:38:46;16.25;;;10.75;;
74523;SDS011;63074;44.696;10.358;2023-03-14T09:41:29;16.70;;;10.57;;
74523;SDS011;63074;44.696;10.358;2023-03-14T09:44:04;16.10;;;10.50;;
74523;SDS011;63074;44.696;10.358;2023-03-14T09:46:36;16.27;;;10.30;;
74523;SDS011;63074;44.696;10.358;2023-03-14T09:49:12;17.25;;;10.50;;
74523;SDS011;63074;44.696;10.358;2023-03-14T09:52:00;20.67;;;11.52;;
74523;SDS011;63074;44.696;10.358;2023-03-14T09:54:36;22.90;;;14.50;;
74523;SDS011;63074;44.696;10.358;2023-03-14T09:57:09;22.25;;;13.23;;
74523;SDS011;63074;44.696;10.358;2023-03-14T09:59:39;19.02;;;11.70;;
74523;SDS011;63074;44.696;10.358;2023-03-14T10:02:18;20.13;;;12.63;;
74523;SDS011;63074;44.696;10.358;2023-03-14T10:04:47;19.85;;;12.43;;
74523;SDS011;63074;44.696;10.358;2023-03-14T10:07:16;23.35;;;13.05;;
74523;SDS011;63074;44.696;10.358;2023-03-14T10:09:50;22.83;;;14.32;;
74523;SDS011;63074;44.696;10.358;2023-03-14T10:12:17;22.30;;;14.43;;
74523;SDS011;63074;44.696;10.358;2023-03-14T10:14:50;22.88;;;14.80;;
74523;SDS011;63074;44.696;10.358;2023-03-14T10:17:19;22.30;;;14.23;;
74523;SDS011;63074;44.696;10.358;2023-03-14T10:19:52;24.45;;;15.23;;
74523;SDS011;63074;44.696;10.358;2023-03-14T10:22:19;26.35;;;14.48;;
74523;SDS011;63074;44.696;10.358;2023-03-14T10:24:50;23.42;;;14.38;;
74523;SDS011;63074;44.696;10.358;2023-03-14T10:27:29;22.55;;;13.20;;
74523;SDS011;63074;44.696;10.358;2023-03-14T10:29:58;21.17;;;13.52;;
74523;SDS011;63074;44.696;10.358;2023-03-14T10:32:44;22.65;;;13.30;;
74523;SDS011;63074;44.696;10.358;2023-03-14T10:38:00;22.23;;;13.63;;
74523;SDS011;63074;44.696;10.358;2023-03-14T10:40:32;20.05;;;14.10;;
74523;SDS011;63074;44.696;10.358;2023-03-14T10:43:03;22.02;;;13.80;;
74523;SDS011;63074;44.696;10.358;2023-03-14T10:45:33;23.23;;;14.55;;
74523;SDS011;63074;44.696;10.358;2023-03-14T10:50:48;22.75;;;13.82;;
74523;SDS011;63074;44.696;10.358;2023-03-14T10:53:19;16.88;;;11.90;;
74523;SDS011;63074;44.696;10.358;2023-03-14T10:55:45;17.15;;;11.50;;
74523;SDS011;63074;44.696;10.358;2023-03-14T10:58:22;9.65;;;7.10;;
74523;SDS011;63074;44.696;10.358;2023-03-14T11:03:33;8.55;;;5.38;;
74523;SDS011;63074;44.696;10.358;2023-03-14T11:06:06;9.70;;;6.88;;
74523;SDS011;63074;44.696;10.358;2023-03-14T11:11:23;11.63;;;7.90;;
74523;SDS011;63074;44.696;10.358;2023-03-14T11:30:54;12.95;;;8.15;;
74523;SDS011;63074;44.696;10.358;2023-03-14T11:33:35;15.00;;;8.48;;
74523;SDS011;63074;44.696;10.358;2023-03-14T11:36:08;13.48;;;8.52;;
74523;SDS011;63074;44.696;10.358;2023-03-14T11:41:22;11.38;;;8.48;;
74523;SDS011;63074;44.696;10.358;2023-03-14T11:43:52;12.80;;;8.75;;
74523;SDS011;63074;44.696;10.358;2023-03-14T11:46:25;12.18;;;8.50;;
74523;SDS011;63074;44.696;10.358;2023-03-14T11:51:39;11.93;;;8.15;;
74523;SDS011;63074;44.696;10.358;2023-03-14T11:54:14;11.75;;;7.93;;
74523;SDS011;63074;44.696;10.358;2023-03-14T11:57:02;14.50;;;8.48;;
74523;SDS011;63074;44.696;10.358;2023-03-14T12:02:06;8.95;;;6.93;;
74523;SDS011;63074;44.696;10.358;2023-03-14T12:07:30;11.55;;;8.20;;
74523;SDS011;63074;44.696;10.358;2023-03-14T12:10:09;9.30;;;8.10;;
74523;SDS011;63074;44.696;10.358;2023-03-14T12:12:35;9.68;;;7.07;;
74523;SDS011;63074;44.696;10.358;2023-03-14T12:15:02;9.68;;;7.47;;
74523;SDS011;63074;44.696;10.358;2023-03-14T12:17:34;11.07;;;8.45;;
74523;SDS011;63074;44.696;10.358;2023-03-14T12:20:04;11.25;;;7.93;;
74523;SDS011;63074;44.696;10.358;2023-03-14T12:22:50;11.35;;;7.80;;
74523;SDS011;63074;44.696;10.358;2023-03-14T12:25:27;9.95;;;7.22;;
74523;SDS011;63074;44.696;10.358;2023-03-14T12:41:03;11.48;;;7.28;;
74523;SDS011;63074;44.696;10.358;2023-03-14T12:43:54;11.90;;;7.88;;
74523;SDS011;63074;44.696;10.358;2023-03-14T12:46:21;10.05;;;6.57;;
74523;SDS011;63074;44.696;10.358;2023-03-14T12:49:03;11.75;;;6.97;;
74523;SDS011;63074;44.696;10.358;2023-03-14T12:51:37;10.70;;;7.38;;
74523;SDS011;63074;44.696;10.358;2023-03-14T12:59:51;10.00;;;7.55;;
74523;SDS011;63074;44.696;10.358;2023-03-14T13:02:24;9.50;;;6.05;;
74523;SDS011;63074;44.696;10.358;2023-03-14T13:05:05;8.63;;;6.20;;
74523;SDS011;63074;44.696;10.358;2023-03-14T13:12:35;7.55;;;5.75;;
74523;SDS011;63074;44.696;10.358;2023-03-14T13:15:19;9.25;;;6.80;;
74523;SDS011;63074;44.696;10.358;2023-03-14T13:17:47;8.52;;;4.90;;
74523;SDS011;63074;44.696;10.358;2023-03-14T13:20:19;9.43;;;5.82;;
74523;SDS011;63074;44.696;10.358;2023-03-14T13:22:48;8.70;;;6.28;;
74523;SDS011;63074;44.696;10.358;2023-03-14T13:25:14;10.27;;;7.35;;
74523;SDS011;63074;44.696;10.358;2023-03-14T13:27:43;8.32;;;5.68;;
74523;SDS011;63074;44.696;10.358;2023-03-14T13:32:47;9.13;;;6.10;;
74523;SDS011;63074;44.696;10.358;2023-03-14T13:35:18;7.72;;;6.13;;
74523;SDS011;63074;44.696;10.358;2023-03-14T13:38:00;7.10;;;6.38;;
74523;SDS011;63074;44.696;10.358;2023-03-14T13:40:31;14.23;;;5.90;;
74523;SDS011;63074;44.696;10.358;2023-03-14T13:43:05;7.10;;;5.70;;
74523;SDS011;63074;44.696;10.358;2023-03-14T13:45:51;8.07;;;6.05;;
74523;SDS011;63074;44.696;10.358;2023-03-14T13:48:17;9.77;;;5.47;;
74523;SDS011;63074;44.696;10.358;2023-03-14T13:50:58;9.18;;;6.10;;
74523;SDS011;63074;44.696;10.358;2023-03-14T13:53:30;7.72;;;5.78;;
74523;SDS011;63074;44.696;10.358;2023-03-14T13:56:08;8.77;;;5.65;;
74523;SDS011;63074;44.696;10.358;2023-03-14T13:58:36;8.50;;;5.97;;
74523;SDS011;63074;44.696;10.358;2023-03-14T14:03:50;9.98;;;6.00;;
74523;SDS011;63074;44.696;10.358;2023-03-14T14:06:32;7.97;;;5.45;;
74523;SDS011;63074;44.696;10.358;2023-03-14T14:09:02;8.32;;;5.88;;
74523;SDS011;63074;44.696;10.358;2023-03-14T14:14:19;8.88;;;6.20;;
74523;SDS011;63074;44.696;10.358;2023-03-14T14:17:15;8.60;;;6.05;;
74523;SDS011;63074;44.696;10.358;2023-03-14T14:19:45;10.07;;;7.05;;
74523;SDS011;63074;44.696;10.358;2023-03-14T14:22:13;8.18;;;5.85;;
74523;SDS011;63074;44.696;10.358;2023-03-14T14:24:39;7.03;;;4.93;;
74523;SDS011;63074;44.696;10.358;2023-03-14T14:29:39;8.77;;;5.72;;
74523;SDS011;63074;44.696;10.358;2023-03-14T14:37:21;7.88;;;5.90;;
74523;SDS011;63074;44.696;10.358;2023-03-14T14:39:54;8.73;;;6.35;;
74523;SDS011;63074;44.696;10.358;2023-03-14T14:42:31;8.90;;;7.00;;
74523;SDS011;63074;44.696;10.358;2023-03-14T14:44:58;9.15;;;6.57;;
74523;SDS011;63074;44.696;10.358;2023-03-14T14:47:27;10.23;;;6.32;;
74523;SDS011;63074;44.696;10.358;2023-03-14T14:49:54;10.52;;;6.50;;
74523;SDS011;63074;44.696;10.358;2023-03-14T14:52:36;8.32;;;6.10;;
74523;SDS011;63074;44.696;10.358;2023-03-14T14:55:13;8.65;;;6.78;;
74523;SDS011;63074;44.696;10.358;2023-03-14T14:57:48;9.75;;;6.15;;
74523;SDS011;63074;44.696;10.358;2023-03-14T15:00:22;9.88;;;5.72;;
74523;SDS011;63074;44.696;10.358;2023-03-14T15:02:51;9.48;;;6.15;;
74523;SDS011;63074;44.696;10.358;2023-03-14T15:05:25;9.32;;;6.80;;
74523;SDS011;63074;44.696;10.358;2023-03-14T15:07:55;9.35;;;6.30;;
74523;SDS011;63074;44.696;10.358;2023-03-14T15:10:23;8.18;;;6.82;;
74523;SDS011;63074;44.696;10.358;2023-03-14T15:12:50;8.68;;;6.78;;
74523;SDS011;63074;44.696;10.358;2023-03-14T15:15:16;10.40;;;7.15;;
74523;SDS011;63074;44.696;10.358;2023-03-14T15:17:43;9.35;;;6.82;;
74523;SDS011;63074;44.696;10.358;2023-03-14T15:20:10;8.85;;;6.43;;
74523;SDS011;63074;44.696;10.358;2023-03-14T15:22:41;10.63;;;6.68;;
74523;SDS011;63074;44.696;10.358;2023-03-14T15:25:08;10.00;;;7.18;;
74523;SDS011;63074;44.696;10.358;2023-03-14T15:27:35;10.48;;;7.53;;
74523;SDS011;63074;44.696;10.358;2023-03-14T15:30:04;9.43;;;6.93;;
74523;SDS011;63074;44.696;10.358;2023-03-14T15:32:31;9.13;;;7.13;;
74523;SDS011;63074;44.696;10.358;2023-03-14T15:34:57;9.02;;;6.60;;
74523;SDS011;63074;44.696;10.358;2023-03-14T15:37:25;11.63;;;7.00;;
74523;SDS011;63074;44.696;10.358;2023-03-14T15:39:51;8.98;;;6.63;;
74523;SDS011;63074;44.696;10.358;2023-03-14T15:42:17;9.88;;;7.38;;
74523;SDS011;63074;44.696;10.358;2023-03-14T15:44:43;9.50;;;6.75;;
74523;SDS011;63074;44.696;10.358;2023-03-14T15:47:10;7.63;;;6.60;;
74523;SDS011;63074;44.696;10.358;2023-03-14T15:49:36;10.23;;;7.32;;
74523;SDS011;63074;44.696;10.358;2023-03-14T15:52:02;10.00;;;6.82;;
74523;SDS011;63074;44.696;10.358;2023-03-14T15:54:29;11.00;;;7.97;;
74523;SDS011;63074;44.696;10.358;2023-03-14T15:56:55;13.43;;;7.80;;
74523;SDS011;63074;44.696;10.358;2023-03-14T15:59:22;15.30;;;7.45;;
74523;SDS011;63074;44.696;10.358;2023-03-14T16:01:49;10.70;;;7.70;;
74523;SDS011;63074;44.696;10.358;2023-03-14T16:04:15;10.10;;;7.75;;
74523;SDS011;63074;44.696;10.358;2023-03-14T16:06:42;11.45;;;7.82;;
74523;SDS011;63074;44.696;10.358;2023-03-14T16:09:09;10.10;;;7.63;;
74523;SDS011;63074;44.696;10.358;2023-03-14T16:11:39;12.65;;;7.85;;
74523;SDS011;63074;44.696;10.358;2023-03-14T16:14:05;11.88;;;8.32;;
74523;SDS011;63074;44.696;10.358;2023-03-14T16:16:32;13.13;;;8.32;;
74523;SDS011;63074;44.696;10.358;2023-03-14T16:18:58;12.77;;;7.55;;
74523;SDS011;63074;44.696;10.358;2023-03-14T16:21:24;12.15;;;7.88;;
74523;SDS011;63074;44.696;10.358;2023-03-14T16:23:50;11.73;;;7.57;;
74523;SDS011;63074;44.696;10.358;2023-03-14T16:26:18;14.18;;;8.38;;
74523;SDS011;63074;44.696;10.358;2023-03-14T16:28:45;12.13;;;8.40;;
74523;SDS011;63074;44.696;10.358;2023-03-14T16:31:13;13.32;;;8.48;;
74523;SDS011;63074;44.696;10.358;2023-03-14T16:36:09;12.00;;;7.80;;
74523;SDS011;63074;44.696;10.358;2023-03-14T16:38:37;12.45;;;7.88;;
74523;SDS011;63074;44.696;10.358;2023-03-14T16:41:07;14.93;;;7.70;;
74523;SDS011;63074;44.696;10.358;2023-03-14T16:43:42;13.05;;;8.25;;
74523;SDS011;63074;44.696;10.358;2023-03-14T16:46:14;17.70;;;8.63;;
74523;SDS011;63074;44.696;10.358;2023-03-14T16:48:42;13.85;;;9.02;;
74523;SDS011;63074;44.696;10.358;2023-03-14T16:51:09;13.82;;;8.80;;
74523;SDS011;63074;44.696;10.358;2023-03-14T16:53:35;13.30;;;8.38;;
74523;SDS011;63074;44.696;10.358;2023-03-14T16:56:01;20.85;;;8.73;;
74523;SDS011;63074;44.696;10.358;2023-03-14T16:58:28;14.50;;;8.55;;
74523;SDS011;63074;44.696;10.358;2023-03-14T17:00:55;15.20;;;9.20;;
74523;SDS011;63074;44.696;10.358;2023-03-14T17:03:22;14.10;;;9.32;;
74523;SDS011;63074;44.696;10.358;2023-03-14T17:05:50;13.63;;;9.73;;
74523;SDS011;63074;44.696;10.358;2023-03-14T17:08:17;13.45;;;8.35;;
74523;SDS011;63074;44.696;10.358;2023-03-14T17:10:44;12.48;;;8.38;;
74523;SDS011;63074;44.696;10.358;2023-03-14T17:13:11;14.32;;;8.68;;
74523;SDS011;63074;44.696;10.358;2023-03-14T17:15:37;12.70;;;8.90;;
74523;SDS011;63074;44.696;10.358;2023-03-14T17:18:08;13.38;;;9.27;;
74523;SDS011;63074;44.696;10.358;2023-03-14T17:20:34;13.93;;;9.23;;
74523;SDS011;63074;44.696;10.358;2023-03-14T17:23:00;15.57;;;10.98;;
74523;SDS011;63074;44.696;10.358;2023-03-14T17:25:26;23.98;;;11.13;;
74523;SDS011;63074;44.696;10.358;2023-03-14T17:27:53;15.93;;;9.85;;
74523;SDS011;63074;44.696;10.358;2023-03-14T17:30:19;14.00;;;9.27;;
74523;SDS011;63074;44.696;10.358;2023-03-14T17:32:45;12.68;;;8.68;;
74523;SDS011;63074;44.696;10.358;2023-03-14T17:35:11;14.38;;;8.60;;
74523;SDS011;63074;44.696;10.358;2023-03-14T17:37:37;14.27;;;10.00;;
74523;SDS011;63074;44.696;10.358;2023-03-14T17:40:04;13.85;;;9.25;;
74523;SDS011;63074;44.696;10.358;2023-03-14T17:42:30;14.02;;;8.88;;
74523;SDS011;63074;44.696;10.358;2023-03-14T17:44:56;19.00;;;12.20;;
74523;SDS011;63074;44.696;10.358;2023-03-14T17:47:23;22.52;;;13.70;;
74523;SDS011;63074;44.696;10.358;2023-03-14T17:49:49;23.58;;;14.38;;
74523;SDS011;63074;44.696;10.358;2023-03-14T17:52:15;17.48;;;12.20;;
74523;SDS011;63074;44.696;10.358;2023-03-14T17:54:41;20.83;;;14.77;;
74523;SDS011;63074;44.696;10.358;2023-03-14T17:57:07;20.58;;;13.73;;
74523;SDS011;63074;44.696;10.358;2023-03-14T17:59:33;23.05;;;13.70;;
74523;SDS011;63074;44.696;10.358;2023-03-14T18:02:00;22.30;;;12.45;;
74523;SDS011;63074;44.696;10.358;2023-03-14T18:04:26;15.40;;;10.52;;
74523;SDS011;63074;44.696;10.358;2023-03-14T18:06:52;14.98;;;10.05;;
74523;SDS011;63074;44.696;10.358;2023-03-14T18:09:18;14.60;;;9.68;;
74523;SDS011;63074;44.696;10.358;2023-03-14T18:11:45;15.73;;;10.98;;
74523;SDS011;63074;44.696;10.358;2023-03-14T18:14:12;18.33;;;10.93;;
74523;SDS011;63074;44.696;10.358;2023-03-14T18:16:39;18.42;;;11.15;;
74523;SDS011;63074;44.696;10.358;2023-03-14T18:19:09;17.20;;;11.38;;
74523;SDS011;63074;44.696;10.358;2023-03-14T18:21:35;16.92;;;10.32;;
74523;SDS011;63074;44.696;10.358;2023-03-14T18:24:04;15.38;;;9.82;;
74523;SDS011;63074;44.696;10.358;2023-03-14T18:26:30;14.93;;;11.18;;
74523;SDS011;63074;44.696;10.358;2023-03-14T18:28:56;17.13;;;11.55;;
74523;SDS011;63074;44.696;10.358;2023-03-14T18:31:22;16.58;;;10.25;;
74523;SDS011;63074;44.696;10.358;2023-03-14T18:33:50;16.30;;;10.55;;
74523;SDS011;63074;44.696;10.358;2023-03-14T18:38:45;16.30;;;10.88;;
74523;SDS011;63074;44.696;10.358;2023-03-14T18:41:15;15.07;;;10.27;;
74523;SDS011;63074;44.696;10.358;2023-03-14T18:43:44;18.05;;;10.73;;
74523;SDS011;63074;44.696;10.358;2023-03-14T18:46:10;17.45;;;11.30;;
74523;SDS011;63074;44.696;10.358;2023-03-14T18:48:37;19.55;;;11.60;;
74523;SDS011;63074;44.696;10.358;2023-03-14T18:51:06;18.52;;;11.88;;
74523;SDS011;63074;44.696;10.358;2023-03-14T18:53:34;18.25;;;12.77;;
74523;SDS011;63074;44.696;10.358;2023-03-14T18:56:00;17.95;;;12.10;;
74523;SDS011;63074;44.696;10.358;2023-03-14T18:58:26;17.95;;;11.93;;
74523;SDS011;63074;44.696;10.358;2023-03-14T19:01:00;19.38;;;11.52;;
74523;SDS011;63074;44.696;10.358;2023-03-14T19:03:27;18.08;;;11.10;;
74523;SDS011;63074;44.696;10.358;2023-03-14T19:05:55;19.52;;;11.80;;
74523;SDS011;63074;44.696;10.358;2023-03-14T19:08:23;16.77;;;11.85;;
74523;SDS011;63074;44.696;10.358;2023-03-14T19:10:50;19.40;;;12.20;;
74523;SDS011;63074;44.696;10.358;2023-03-14T19:13:19;20.30;;;13.43;;
74523;SDS011;63074;44.696;10.358;2023-03-14T19:15:46;20.20;;;12.05;;
74523;SDS011;63074;44.696;10.358;2023-03-14T19:18:12;17.67;;;11.13;;
74523;SDS011;63074;44.696;10.358;2023-03-14T19:20:39;18.17;;;11.35;;
74523;SDS011;63074;44.696;10.358;2023-03-14T19:23:06;19.42;;;11.85;;
74523;SDS011;63074;44.696;10.358;2023-03-14T19:25:34;19.83;;;13.23;;
74523;SDS011;63074;44.696;10.358;2023-03-14T19:28:00;16.70;;;11.35;;
74523;SDS011;63074;44.696;10.358;2023-03-14T19:30:26;18.02;;;12.32;;
74523;SDS011;63074;44.696;10.358;2023-03-14T19:32:54;22.92;;;14.27;;
74523;SDS011;63074;44.696;10.358;2023-03-14T19:35:20;22.38;;;13.38;;
74523;SDS011;63074;44.696;10.358;2023-03-14T19:37:46;18.85;;;13.45;;
74523;SDS011;63074;44.696;10.358;2023-03-14T19:40:12;20.50;;;13.02;;
74523;SDS011;63074;44.696;10.358;2023-03-14T19:42:38;17.88;;;12.50;;
74523;SDS011;63074;44.696;10.358;2023-03-14T19:45:05;19.02;;;13.05;;
74523;SDS011;63074;44.696;10.358;2023-03-14T19:47:31;19.90;;;12.90;;
74523;SDS011;63074;44.696;10.358;2023-03-14T19:49:58;20.40;;;13.30;;
74523;SDS011;63074;44.696;10.358;2023-03-14T19:52:24;17.95;;;12.55;;
74523;SDS011;63074;44.696;10.358;2023-03-14T19:54:50;22.63;;;14.15;;
74523;SDS011;63074;44.696;10.358;2023-03-14T19:57:17;21.45;;;14.32;;
74523;SDS011;63074;44.696;10.358;2023-03-14T19:59:43;24.08;;;13.93;;
74523;SDS011;63074;44.696;10.358;2023-03-14T20:02:12;20.98;;;13.35;;
74523;SDS011;63074;44.696;10.358;2023-03-14T20:04:39;22.60;;;14.77;;
74523;SDS011;63074;44.696;10.358;2023-03-14T20:07:08;21.58;;;13.23;;
74523;SDS011;63074;44.696;10.358;2023-03-14T20:09:36;20.30;;;14.32;;
74523;SDS011;63074;44.696;10.358;2023-03-14T20:12:03;23.23;;;14.75;;
74523;SDS011;63074;44.696;10.358;2023-03-14T20:14:30;21.52;;;13.85;;
74523;SDS011;63074;44.696;10.358;2023-03-14T20:16:56;20.35;;;14.35;;
74523;SDS011;63074;44.696;10.358;2023-03-14T20:19:23;22.95;;;15.68;;
74523;SDS011;63074;44.696;10.358;2023-03-14T20:21:51;22.35;;;14.73;;
74523;SDS011;63074;44.696;10.358;2023-03-14T20:24:17;22.17;;;13.60;;
74523;SDS011;63074;44.696;10.358;2023-03-14T20:26:44;20.17;;;14.70;;
74523;SDS011;63074;44.696;10.358;2023-03-14T20:29:10;21.85;;;14.18;;
74523;SDS011;63074;44.696;10.358;2023-03-14T20:31:39;20.92;;;15.18;;
74523;SDS011;63074;44.696;10.358;2023-03-14T20:34:06;22.60;;;14.73;;
74523;SDS011;63074;44.696;10.358;2023-03-14T20:36:32;22.05;;;14.40;;
74523;SDS011;63074;44.696;10.358;2023-03-14T20:38:59;20.40;;;13.48;;
74523;SDS011;63074;44.696;10.358;2023-03-14T20:41:26;21.35;;;12.52;;
74523;SDS011;63074;44.696;10.358;2023-03-14T20:43:52;20.80;;;13.23;;
74523;SDS011;63074;44.696;10.358;2023-03-14T20:46:18;20.13;;;12.73;;
74523;SDS011;63074;44.696;10.358;2023-03-14T20:48:44;22.88;;;14.27;;
74523;SDS011;63074;44.696;10.358;2023-03-14T20:51:11;21.05;;;13.25;;
74523;SDS011;63074;44.696;10.358;2023-03-14T20:53:38;22.35;;;13.70;;
74523;SDS011;63074;44.696;10.358;2023-03-14T20:56:05;20.25;;;13.25;;
74523;SDS011;63074;44.696;10.358;2023-03-14T20:58:32;22.75;;;14.65;;
74523;SDS011;63074;44.696;10.358;2023-03-14T21:00:59;22.40;;;13.35;;
74523;SDS011;63074;44.696;10.358;2023-03-14T21:03:28;21.25;;;13.02;;
74523;SDS011;63074;44.696;10.358;2023-03-14T21:05:54;19.50;;;12.57;;
74523;SDS011;63074;44.696;10.358;2023-03-14T21:08:21;22.38;;;12.65;;
74523;SDS011;63074;44.696;10.358;2023-03-14T21:10:49;18.77;;;11.55;;
74523;SDS011;63074;44.696;10.358;2023-03-14T21:13:18;21.48;;;13.30;;
74523;SDS011;63074;44.696;10.358;2023-03-14T21:15:44;22.02;;;13.13;;
74523;SDS011;63074;44.696;10.358;2023-03-14T21:18:11;21.05;;;12.77;;
74523;SDS011;63074;44.696;10.358;2023-03-14T21:20:38;21.48;;;13.40;;
74523;SDS011;63074;44.696;10.358;2023-03-14T21:23:06;25.40;;;16.58;;
74523;SDS011;63074;44.696;10.358;2023-03-14T21:25:33;27.60;;;17.23;;
74523;SDS011;63074;44.696;10.358;2023-03-14T21:27:59;25.05;;;16.00;;
74523;SDS011;63074;44.696;10.358;2023-03-14T21:30:29;21.85;;;14.27;;
74523;SDS011;63074;44.696;10.358;2023-03-14T21:32:57;23.20;;;16.33;;
74523;SDS011;63074;44.696;10.358;2023-03-14T21:35:24;22.83;;;12.68;;
74523;SDS011;63074;44.696;10.358;2023-03-14T21:37:50;17.98;;;11.32;;
74523;SDS011;63074;44.696;10.358;2023-03-14T21:40:16;17.95;;;11.65;;
74523;SDS011;63074;44.696;10.358;2023-03-14T21:42:43;16.33;;;10.48;;
74523;SDS011;63074;44.696;10.358;2023-03-14T21:45:09;17.52;;;10.73;;
74523;SDS011;63074;44.696;10.358;2023-03-14T21:47:36;20.83;;;11.35;;
74523;SDS011;63074;44.696;10.358;2023-03-14T21:50:02;17.63;;;11.30;;
74523;SDS011;63074;44.696;10.358;2023-03-14T21:52:29;17.65;;;10.60;;
74523;SDS011;63074;44.696;10.358;2023-03-14T21:54:55;20.85;;;11.07;;
74523;SDS011;63074;44.696;10.358;2023-03-14T21:57:21;17.88;;;11.32;;
74523;SDS011;63074;44.696;10.358;2023-03-14T21:59:53;17.77;;;10.32;;